Prescott Valley, AZ

12:51 AM MST on September 04, 2015 (GMT -0700)
Prescott Valley | | Change Station
CLOSE
Current Station
Personal Weather Station
Location: Prescott Valley, AZ
Elevation: 5020 ft
Nearby Weather Stations

Elev 5020 ft 34.61 °N, 112.32 °W | Updated 1 minute ago

Clear
Clear
61.7 °F
Feels Like 61.7 °F
N
2.2
Wind Variable Wind from SSW
Gusts 3.6 mph

Today
High -- | Low -- °F
--% Chance of Precip.
Yesterday
High -- | Low -- °F
Precip. -- in
6:04 AM 6:51 PM
Waning Gibbous, 62% visible
Pressure 29.83 in
Visibility 10.0 miles
Clouds Few 10000 ft
Dew Point 54 °F
Humidity 76%
Rainfall 0.00 in
Snow Depth Not available.
UV 0.0 out of 12
Pollen 5.60 out of 12
Air Quality Not available.
Flu Activity Not available.
METAR KPRC 040653Z AUTO 12007KT 10SM FEW100 17/15 A3007 RMK AO2 SLP101 T01670150 402890156 TSNO
Pressure 29.83 in
Visibility 10.0 miles
Clouds Few 10000 ft
Dew Point 54 °F
Humidity 76%
Rainfall 0.00 in
Snow Depth Not available.
UV 0.0 out of 12
Pollen 5.60 out of 12
Air Quality Not available.
Flu Activity Not available.
METAR KPRC 040653Z AUTO 12007KT 10SM FEW100 17/15 A3007 RMK AO2 SLP101 T01670150 402890156 TSNO

10-Day Weather Forecast

×

Almanac

Astronomy

Sep. 04, 2015 Rise Set
Actual Time
Civil Twilight
Nautical Twilight
Astronomical Twilight
Moon
Length of Visible Light
Length of Day
Tomorrow will be .
, % of the Moon is Illuminated

Today's Extremes

State Highs State Lows

Community

WunderPhotos

Upload Photos

1,852,132 photos uploaded!

WunderBlogs® & News

Nearby

Air Quality

  Air Quality AQ Index Pollutant
Not available.

Snow Depth

Station Depth Elevation

Earthquake Activity

City Distance Mag. Time & Date
Minimum magnitude displayed is 2.5.

Coastal Water Temperatures

Place Temperature

Stations

Nearby Weather Stations

Station Location Temp. Windchill Dew Point Humidity Wind Precip. Elev Updated Type